createdAt,value
2023-04-09T00:11:21.672Z,33.65
2023-04-09T00:13:48.412Z,36.88
2023-04-09T00:16:15.344Z,36.00
2023-04-09T00:18:42.037Z,36.00
2023-04-09T00:47:23.557Z,35.05
2023-04-09T00:49:50.623Z,35.05
2023-04-09T00:52:17.266Z,29.85
2023-04-09T00:54:44.043Z,31.80
2023-04-09T01:12:57.402Z,34.08
2023-04-09T01:15:30.941Z,32.10
2023-04-09T01:18:07.465Z,34.47
2023-04-09T01:20:41.511Z,31.00
2023-04-09T01:27:06.031Z,30.88
2023-04-09T07:55:51.815Z,43.90
2023-04-09T07:58:18.447Z,43.10
2023-04-09T08:00:45.220Z,41.03
2023-04-09T08:03:12.715Z,36.85
2023-04-09T09:26:58.818Z,31.42
2023-04-09T09:29:26.229Z,30.42
2023-04-09T09:31:56.779Z,30.95
2023-04-09T09:34:25.348Z,32.08
2023-04-09T09:36:52.261Z,34.45
2023-04-09T10:08:00.113Z,33.75
2023-04-09T10:10:28.481Z,23.92
2023-04-09T10:12:56.210Z,34.42
2023-04-09T10:15:23.556Z,36.38
2023-04-09T10:17:50.578Z,34.75
2023-04-09T10:20:44.849Z,33.42
2023-04-09T10:30:55.279Z,21.10
2023-04-09T10:33:26.428Z,31.65
2023-04-09T10:35:55.238Z,27.58
2023-04-09T11:05:28.093Z,27.80
2023-04-09T11:08:03.440Z,26.38
2023-04-09T11:10:30.964Z,25.55
2023-04-09T11:12:57.654Z,25.77
2023-04-09T11:15:24.273Z,24.67
2023-04-09T11:17:51.216Z,28.73
2023-04-09T11:35:43.367Z,29.50
2023-04-09T11:38:11.478Z,26.85
2023-04-09T11:40:47.666Z,25.30
2023-04-09T11:43:16.465Z,27.00
2023-04-09T12:23:24.055Z,20.35
2023-04-09T12:26:54.113Z,19.38
2023-04-09T12:29:21.459Z,19.95
2023-04-09T12:31:48.157Z,19.20
2023-04-09T12:34:14.879Z,18.95
2023-04-09T12:36:41.677Z,18.45
2023-04-09T12:50:41.466Z,17.90
2023-04-09T12:53:08.887Z,18.85
2023-04-09T12:55:35.632Z,18.92
2023-04-09T12:58:02.524Z,20.45
2023-04-09T13:04:09.971Z,20.70
2023-04-09T13:21:50.684Z,16.85
2023-04-09T13:24:17.486Z,19.05
2023-04-09T13:26:44.160Z,16.52
2023-04-09T13:29:10.957Z,17.73
2023-04-09T13:31:37.661Z,17.33
2023-04-09T13:34:04.381Z,17.38
2023-04-09T14:08:15.796Z,15.18
2023-04-09T14:10:42.651Z,14.90
2023-04-09T14:13:11.867Z,13.75
2023-04-09T14:15:39.097Z,14.82
2023-04-09T18:20:24.301Z,10.77
2023-04-09T18:22:50.978Z,10.75
2023-04-09T18:25:17.812Z,11.35
2023-04-09T18:27:44.589Z,10.90
2023-04-09T18:30:11.746Z,11.73
2023-04-09T18:32:38.438Z,10.30
2023-04-09T19:09:44.695Z,12.10
2023-04-09T19:12:11.394Z,11.75
2023-04-09T19:14:40.110Z,11.10
2023-04-09T19:17:07.557Z,11.95
2023-04-09T19:19:34.714Z,12.57
2023-04-09T19:22:01.728Z,11.80
2023-04-09T19:24:30.452Z,12.98
2023-04-09T20:10:27.080Z,10.50
2023-04-09T20:12:58.604Z,11.30
2023-04-09T20:15:28.222Z,10.73
2023-04-09T20:17:55.021Z,11.13
2023-04-09T20:20:26.890Z,11.95
2023-04-09T20:22:56.300Z,11.38
2023-04-09T20:25:24.320Z,10.43
2023-04-09T20:27:54.604Z,10.25
2023-04-09T20:50:37.564Z,10.65
2023-04-09T20:53:04.237Z,10.95
2023-04-09T20:55:31.051Z,11.35
2023-04-09T20:57:58.391Z,11.10
